• Join FlightAware (Why Join?)
  • Login
  • US Flag 
12:32AM EST


 

Airport Tracker/Info


-or-


 

Live Flight TrackerFlight Track Log ✈ N36QM ✈ 06-Jul-2013 ✈ KOXI - 4Y4

Flight Track Log - Related Links

Times and Time Zones

All times are in EDT time to prevent confusion due to time zone crossing. See the N36QM flight status page for this flight to view local times or setup timezone preferences in your user account.

Time Position Orientation Groundspeed Altitude Reporting Facility
EDT Latitude Longitude Course Direction KTS MPH feet Rate Location/Type
08:25AM 41.4461 -86.6083 20° North 130 150 4,200  Level Chicago Center
08:26AM 41.4800 -86.5939 18° North 129 148 4,800 540 Climbing Chicago Center
08:27AM 41.5136 -86.5767 21° North 129 148 5,400 540 Climbing Chicago Center
08:28AM 41.5489 -86.5594 20° North 134 154 6,000 540 Climbing Chicago Center
08:29AM 41.5936 -86.5406 19° North  Level Estimated
08:29AM 41.5847 -86.5442 18° North 135 155 6,600  Level Chicago Center
08:30AM 41.6374 -86.5198 20° North  Level Estimated
08:30AM 41.6272 -86.5242 19° North 135 155 7,000  Level Chicago Center
08:31AM 41.6708 -86.5028 20° North 163 188 7,000  Level Chicago Center
08:32AM 41.7169 -86.4811 19° North 174 200 7,000  Level Chicago Center
08:33AM 41.7642 -86.4592 19° North 179 206 7,000  Level Chicago Center
08:34AM 41.8094 -86.4364 21° North 175 201 7,000  Level Chicago Center
08:35AM 41.8564 -86.4150 19° North 177 204 7,000  Level Chicago Center
08:36AM 41.9025 -86.3936 19° North 176 203 7,000  Level Chicago Center
08:37AM 41.9478 -86.3711 20° North 174 200 7,000  Level Chicago Center
08:38AM 41.9933 -86.3492 20° North 174 200 7,000  Level Chicago Center
08:39AM 42.0481 -86.3219 20° North 174 200 7,000  Level Chicago Center
08:40AM 42.0942 -86.3017 18° North 175 201 7,000  Level Chicago Center
08:41AM 42.1392 -86.2772 22° Northeast 174 200 7,000  Level Chicago Center
08:42AM 42.1839 -86.2536 21° North 174 200 7,000  Level Chicago Center
08:43AM 42.2294 -86.2306 21° North 174 200 7,000  Level Chicago Center
08:44AM 42.2761 -86.2100 18° North 176 203 7,000  Level Chicago Center
08:45AM 42.3278 -86.1844 20° North 175 201 7,000  Level Chicago Center
08:46AM 42.3736 -86.1622 20° North 175 201 7,000  Level Chicago Center
08:47AM 42.4192 -86.1397 20° North 175 201 7,000  Level Chicago Center
08:48AM 42.4650 -86.1161 21° North 176 203 7,000  Level Chicago Center
08:49AM 42.5097 -86.0944 20° North 173 199 7,000  Level Chicago Center
08:50AM 42.5553 -86.0725 20° North 172 198 7,000  Level Chicago Center
08:51AM 42.6006 -86.0511 19° North 173 199 7,000  Level Chicago Center
08:52AM 42.6467 -86.0292 19° North 174 200 7,000  Level Chicago Center
08:53AM 42.7006 -86.0019 20° North 174 200 7,000  Level Chicago Center
08:54AM 42.7456 -85.9797 20° North 173 199 7,000  Level Chicago Center
08:55AM 42.7911 -85.9575 20° North 174 200 7,000 -60 Level Chicago Center
08:57AM 42.8361 -85.9347 20° North 174 200 6,900  Descending Chicago Center
08:58AM 42.8822 -85.9125 19° North 177 204 7,000  Climbing Chicago Center
08:59AM 42.9281 -85.8900 20° North 176 203 7,000  Level Chicago Center
09:00AM 42.9736 -85.8675 20° North 176 203 7,000  Level Chicago Center
09:01AM 43.0278 -85.8406 20° North 176 203 7,000  Level Chicago Center
09:02AM 43.0728 -85.8172 21° North 176 203 7,000  Level Chicago Center
09:03AM 43.1186 -85.7956 19° North 176 203 7,000  Level Chicago Center
09:04AM 43.1642 -85.7728 20° North 176 203 7,000  Level Chicago Center
09:05AM 43.2106 -85.7503 19° North 177 204 7,000  Level Chicago Center
09:06AM 43.2561 -85.7269 20° North 174 200 7,000  Level Chicago Center
09:07AM 43.3111 -85.6989 20° North 175 201 7,000  Level Chicago Center
09:08AM 43.3567 -85.6758 20° North 177 204 7,000  Level Chicago Center
09:09AM 43.4028 -85.6533 20° North 176 203 7,000  Level Chicago Center
09:10AM 43.4481 -85.6308 20° North 176 203 7,000  Level Chicago Center
09:11AM 43.4944 -85.6069 20° North 178 205 7,000  Level Chicago Center
09:12AM 43.5408 -85.5847 19° North 177 204 7,000  Level Chicago Center
09:13AM 43.5861 -85.5608 21° North 177 204 7,100  Climbing Chicago Center
09:14AM 43.6403 -85.5331 20° North 174 200 7,100  Level Chicago Center
09:15AM 43.6675 -85.5192 20° North 175 201 7,100  Level Minneapolis Center
09:16AM 43.7133 -85.4964 20° North 175 201 7,100  Level Minneapolis Center
09:17AM 43.7589 -85.4733 20° North 175 201 7,100 -60 Level Minneapolis Center
09:18AM 43.8131 -85.4453 20° North 175 201 7,000 -60 Descending Minneapolis Center
09:19AM 43.8589 -85.4214 21° North 175 201 7,000  Level Minneapolis Center
09:20AM 43.9047 -85.3975 21° North 176 203 7,000  Level Minneapolis Center
09:21AM 43.9589 -85.3692 21° North 174 200 7,100  Climbing Minneapolis Center
09:22AM 44.0058 -85.3486 17° North 177 204 7,100 -60 Level Minneapolis Center
09:23AM 44.0528 -85.3222 22° Northeast 178 205 7,000 -60 Descending Minneapolis Center
09:24AM 44.0986 -85.2969 22° Northeast 178 205 7,000  Level Minneapolis Center
09:25AM 44.1456 -85.2733 20° North 178 205 7,000  Level Minneapolis Center
09:26AM 44.1914 -85.2506 20° North 178 205 7,000  Level Minneapolis Center
09:27AM 44.2469 -85.2222 20° North 177 204 7,000  Level Minneapolis Center
09:28AM 44.2925 -85.1978 21° North 177 204 7,000  Level Minneapolis Center
09:29AM 44.3392 -85.1756 19° North 177 204 7,000  Level Minneapolis Center
09:31AM 44.3876 -85.1489 21° North  Level FlightAware Approximate
09:38AM 44.6924 -84.9872 20° North  Level FlightAware Approximate
09:39AM 44.7348 -84.9602 25° Northeast  Level FlightAware Approximate
09:40AM 44.7776 -84.9347 21° North  Level FlightAware Approximate
09:41AM 44.8209 -84.9106 21° North  Level FlightAware Approximate
09:42AM 44.8643 -84.8866 22° Northeast  Level FlightAware Approximate
09:43AM 44.9000 -84.8667 North  Level FlightAware Approximate
09:44AM 44.9118 -84.8753 North  Level Estimated
09:45AM 44.9118 -84.8753 North  Level Estimated
09:46AM 44.9118 -84.8753 North  Level Estimated
09:47AM 44.9118 -84.8753 North  Level Estimated
09:48AM 44.9118 -84.8753 North  Level Estimated
09:49AM 44.9118 -84.8753 North  Level Estimated